createdAt,value
2018-03-31T00:01:15.962Z,9.57
2018-03-31T00:03:42.957Z,9.87
2018-03-31T00:06:09.961Z,9.60
2018-03-31T00:08:37.278Z,9.23
2018-03-31T00:11:04.281Z,8.90
2018-03-31T00:13:31.319Z,8.60
2018-03-31T00:15:58.506Z,8.93
2018-03-31T00:18:25.510Z,9.30
2018-03-31T00:20:52.517Z,9.00
2018-03-31T00:23:19.841Z,9.43
2018-03-31T00:25:46.843Z,9.07
2018-03-31T00:28:13.860Z,8.63
2018-03-31T00:30:40.854Z,8.90
2018-03-31T00:33:07.856Z,8.37
2018-03-31T00:35:35.007Z,7.43
2018-03-31T00:38:02.014Z,7.77
2018-03-31T00:40:29.022Z,8.00
2018-03-31T00:42:56.337Z,8.37
2018-03-31T00:45:23.346Z,7.90
2018-03-31T00:47:50.361Z,9.37
2018-03-31T00:50:17.466Z,9.13
2018-03-31T00:52:44.476Z,9.37
2018-03-31T00:55:11.484Z,8.93
2018-03-31T00:57:38.567Z,8.50
2018-03-31T01:00:05.574Z,9.10
2018-03-31T01:02:32.578Z,9.60
2018-03-31T01:04:59.754Z,9.07
2018-03-31T01:07:26.772Z,10.20
2018-03-31T01:09:53.766Z,9.70
2018-03-31T01:12:20.822Z,9.63
2018-03-31T01:14:47.839Z,8.40
2018-03-31T01:17:14.843Z,8.87
2018-03-31T01:19:41.882Z,8.37
2018-03-31T01:22:08.886Z,8.60
2018-03-31T01:24:35.921Z,7.50
2018-03-31T01:27:02.955Z,7.87
2018-03-31T01:29:29.949Z,7.87
2018-03-31T01:31:56.954Z,8.03
2018-03-31T01:34:24.005Z,9.27
2018-03-31T01:36:51.011Z,9.57
2018-03-31T01:39:18.010Z,10.07
2018-03-31T01:41:45.050Z,10.50
2018-03-31T01:44:12.062Z,9.43
2018-03-31T01:46:39.078Z,10.40
2018-03-31T01:49:06.114Z,9.10
2018-03-31T01:51:33.110Z,9.67
2018-03-31T01:54:00.111Z,8.53
2018-03-31T01:56:27.259Z,9.97
2018-03-31T01:58:54.262Z,9.00
2018-03-31T02:01:21.256Z,9.90
2018-03-31T02:03:48.304Z,8.90
2018-03-31T02:06:15.302Z,8.90
2018-03-31T02:08:42.370Z,8.73
2018-03-31T02:11:09.413Z,8.93
2018-03-31T02:13:36.413Z,9.27
2018-03-31T02:16:03.422Z,8.17
2018-03-31T02:18:30.467Z,9.00
2018-03-31T02:20:57.476Z,9.07
2018-03-31T02:23:24.473Z,8.63
2018-03-31T02:25:51.560Z,8.70
2018-03-31T02:28:18.561Z,9.37
2018-03-31T02:30:45.567Z,10.47
2018-03-31T02:33:12.758Z,11.13
2018-03-31T02:35:39.770Z,12.83
2018-03-31T02:38:06.766Z,11.00
2018-03-31T02:40:33.919Z,10.80
2018-03-31T02:43:00.922Z,12.00
2018-03-31T02:45:27.936Z,12.97
2018-03-31T02:47:54.980Z,12.07
2018-03-31T02:50:21.982Z,12.63
2018-03-31T02:52:49.926Z,12.07
2018-03-31T02:55:17.101Z,12.17
2018-03-31T02:57:44.114Z,11.93
2018-03-31T03:00:11.799Z,12.77
2018-03-31T03:02:39.301Z,11.87
2018-03-31T03:05:06.320Z,12.10
2018-03-31T03:07:33.339Z,12.17
2018-03-31T03:10:00.394Z,11.27
2018-03-31T03:12:27.402Z,12.60
2018-03-31T03:14:54.419Z,9.90
2018-03-31T03:17:21.478Z,8.97
2018-03-31T03:19:48.476Z,8.97
2018-03-31T03:22:15.486Z,7.87
2018-03-31T03:24:42.947Z,9.53
2018-03-31T03:27:09.946Z,9.47
2018-03-31T03:29:36.963Z,10.03
2018-03-31T03:32:04.019Z,9.77
2018-03-31T03:34:31.031Z,9.77
2018-03-31T03:36:58.067Z,12.77
2018-03-31T03:39:25.141Z,13.53
2018-03-31T03:41:52.149Z,12.93
2018-03-31T03:44:19.161Z,11.67
2018-03-31T03:46:46.198Z,12.43
2018-03-31T03:49:13.206Z,11.20
2018-03-31T03:51:40.210Z,9.83
2018-03-31T03:54:07.390Z,9.23
2018-03-31T03:56:34.398Z,9.83
2018-03-31T03:59:01.421Z,9.60
2018-03-31T04:01:28.501Z,10.27
2018-03-31T04:03:55.497Z,10.67
2018-03-31T04:06:22.507Z,10.40
2018-03-31T04:08:49.981Z,10.50
2018-03-31T04:11:16.997Z,10.67
2018-03-31T04:13:44.002Z,10.63
2018-03-31T04:16:11.129Z,9.20
2018-03-31T04:18:38.130Z,10.47
2018-03-31T04:21:05.144Z,10.53
2018-03-31T04:23:32.185Z,12.37
2018-03-31T04:25:59.200Z,11.17
2018-03-31T04:28:26.216Z,10.83
2018-03-31T04:30:53.220Z,11.20
2018-03-31T04:33:20.261Z,11.23
2018-03-31T04:35:47.426Z,11.07
2018-03-31T04:38:14.449Z,12.07
2018-03-31T04:40:41.451Z,11.70
2018-03-31T04:43:08.593Z,12.83
2018-03-31T04:45:35.601Z,15.43
2018-03-31T04:48:02.618Z,13.30
2018-03-31T04:50:29.777Z,14.47
2018-03-31T04:52:56.817Z,13.47
2018-03-31T04:55:23.830Z,14.17
2018-03-31T04:57:50.865Z,14.13
2018-03-31T05:00:17.874Z,14.70
2018-03-31T05:02:44.919Z,14.40
2018-03-31T05:05:12.144Z,13.23
2018-03-31T05:07:39.182Z,13.70
2018-03-31T05:10:06.197Z,15.00
2018-03-31T05:12:33.261Z,15.87
2018-03-31T05:15:00.286Z,14.03
2018-03-31T05:17:27.333Z,28.00
2018-03-31T05:19:54.849Z,24.93
2018-03-31T05:22:21.858Z,22.53
2018-03-31T05:24:48.861Z,21.67
2018-03-31T05:27:15.899Z,21.90
2018-03-31T05:29:42.918Z,22.03
2018-03-31T05:32:09.932Z,27.97
2018-03-31T05:34:37.151Z,24.53
2018-03-31T05:37:04.161Z,23.70
2018-03-31T05:39:31.175Z,35.63
2018-03-31T05:41:58.388Z,30.00
2018-03-31T05:44:25.404Z,26.27
2018-03-31T05:46:52.434Z,43.27
2018-03-31T05:49:19.833Z,24.10
2018-03-31T05:51:46.845Z,24.17
2018-03-31T05:54:13.882Z,51.13
2018-03-31T05:56:41.042Z,46.10
2018-03-31T05:59:08.047Z,35.83
2018-03-31T06:01:35.050Z,25.33
2018-03-31T06:04:02.234Z,25.67
2018-03-31T06:06:29.248Z,38.93
2018-03-31T06:08:56.289Z,27.40
2018-03-31T06:11:23.422Z,25.77
2018-03-31T06:13:50.435Z,24.10
2018-03-31T06:16:17.464Z,23.97
2018-03-31T06:18:44.494Z,21.27
2018-03-31T06:21:11.541Z,20.23
2018-03-31T06:23:38.533Z,19.97
2018-03-31T06:26:05.766Z,25.40
2018-03-31T06:28:32.778Z,45.03
2018-03-31T06:30:59.790Z,22.37
2018-03-31T06:33:26.858Z,23.80
2018-03-31T06:35:53.865Z,25.83
2018-03-31T06:38:20.886Z,26.23
2018-03-31T06:40:47.931Z,27.47
2018-03-31T06:43:14.942Z,26.90
2018-03-31T06:45:41.966Z,24.27
2018-03-31T06:48:09.154Z,26.47
2018-03-31T06:50:36.165Z,23.60
2018-03-31T06:53:03.195Z,25.47
2018-03-31T06:55:30.239Z,27.20
2018-03-31T06:57:57.254Z,31.33
2018-03-31T07:00:24.280Z,29.13
2018-03-31T07:02:51.611Z,26.97
2018-03-31T07:05:18.647Z,30.57
2018-03-31T07:07:45.651Z,30.47
2018-03-31T07:10:12.844Z,28.23
2018-03-31T07:12:39.881Z,29.40
2018-03-31T07:15:06.908Z,26.87
2018-03-31T07:17:34.057Z,30.17
2018-03-31T07:20:01.071Z,27.60
2018-03-31T07:22:28.081Z,31.33
2018-03-31T07:24:55.143Z,110.67
2018-03-31T07:27:22.158Z,31.27
2018-03-31T07:29:49.190Z,36.77
2018-03-31T07:32:16.223Z,47.27
2018-03-31T07:34:43.232Z,32.87
2018-03-31T07:37:10.260Z,39.03
2018-03-31T07:39:37.312Z,31.63
2018-03-31T07:42:04.321Z,31.27
2018-03-31T07:44:31.332Z,41.90
2018-03-31T07:46:58.494Z,51.00
2018-03-31T07:49:25.507Z,36.90
2018-03-31T07:51:52.516Z,30.67
2018-03-31T07:54:19.550Z,25.63
2018-03-31T07:56:46.563Z,30.70
2018-03-31T07:59:13.588Z,27.17
2018-03-31T08:01:40.651Z,27.37
2018-03-31T08:04:07.664Z,28.10
2018-03-31T08:06:34.668Z,28.83
2018-03-31T08:09:01.875Z,29.97
2018-03-31T08:11:28.897Z,28.37
2018-03-31T08:13:55.950Z,27.83
2018-03-31T08:16:23.298Z,60.63
2018-03-31T08:18:50.316Z,35.30
2018-03-31T08:21:17.334Z,29.37
2018-03-31T08:23:44.670Z,25.63
2018-03-31T08:26:11.684Z,34.67
2018-03-31T08:28:38.698Z,29.03
2018-03-31T08:31:05.714Z,29.73
2018-03-31T08:33:32.727Z,29.77
2018-03-31T08:36:00.113Z,28.50
2018-03-31T08:38:27.126Z,28.07
2018-03-31T08:40:54.143Z,26.67
2018-03-31T08:43:21.517Z,27.03
2018-03-31T08:52:30.070Z,25.33
2018-03-31T08:54:57.076Z,28.30
2018-03-31T08:57:24.087Z,27.47
2018-03-31T08:59:51.182Z,27.17
2018-03-31T09:02:18.202Z,24.77
2018-03-31T09:04:45.221Z,22.43
2018-03-31T09:07:12.308Z,27.67
2018-03-31T09:09:39.337Z,24.93
2018-03-31T09:12:06.362Z,20.90
2018-03-31T09:14:33.556Z,36.17
2018-03-31T09:17:00.566Z,30.50
2018-03-31T09:19:27.586Z,24.47
2018-03-31T09:21:54.744Z,24.13
2018-03-31T09:24:21.745Z,32.03
2018-03-31T09:26:48.780Z,33.27
2018-03-31T09:29:15.850Z,23.83
2018-03-31T09:31:42.893Z,41.13
2018-03-31T09:34:09.896Z,25.23
2018-03-31T09:36:37.120Z,30.47
2018-03-31T09:39:04.166Z,24.50
2018-03-31T09:41:31.185Z,23.27
2018-03-31T09:43:58.377Z,34.97
2018-03-31T09:46:25.395Z,21.53
2018-03-31T09:48:52.402Z,21.53
2018-03-31T09:51:19.450Z,18.57
2018-03-31T09:53:46.498Z,19.27
2018-03-31T09:56:13.515Z,20.70
2018-03-31T09:58:40.560Z,19.50
2018-03-31T10:01:07.584Z,21.67
2018-03-31T10:03:34.601Z,23.27
2018-03-31T10:06:01.713Z,17.47
2018-03-31T10:08:28.691Z,18.33
2018-03-31T10:10:55.695Z,15.77
2018-03-31T10:13:22.721Z,15.33
2018-03-31T10:15:49.723Z,14.97
2018-03-31T10:18:16.735Z,14.43
2018-03-31T10:20:43.920Z,11.80
2018-03-31T10:23:10.924Z,12.97
2018-03-31T10:25:37.938Z,11.03
2018-03-31T10:28:05.133Z,10.13
2018-03-31T10:30:32.141Z,10.10
2018-03-31T10:32:59.148Z,8.07
2018-03-31T10:35:26.291Z,8.53
2018-03-31T10:37:53.343Z,8.07
2018-03-31T10:40:20.461Z,6.50
2018-03-31T10:42:47.498Z,6.27
2018-03-31T10:45:14.513Z,6.53
2018-03-31T10:47:41.539Z,6.00
2018-03-31T10:50:08.715Z,4.70
2018-03-31T10:52:35.759Z,30.97
2018-03-31T10:55:02.770Z,16.50
2018-03-31T10:57:29.843Z,44.97
2018-03-31T10:59:56.866Z,68.77
2018-03-31T11:02:23.915Z,6.70
2018-03-31T11:04:51.109Z,5.10
2018-03-31T11:07:18.134Z,5.00
2018-03-31T11:09:45.147Z,10.87
2018-03-31T11:12:12.366Z,4.67
2018-03-31T11:14:39.414Z,2.97
2018-03-31T11:17:06.434Z,5.93
2018-03-31T11:19:33.502Z,4.37
2018-03-31T11:22:00.523Z,2.70
2018-03-31T11:24:27.547Z,2.40
2018-03-31T11:26:54.606Z,2.63
2018-03-31T11:29:21.612Z,2.37
2018-03-31T11:31:48.645Z,3.47
2018-03-31T11:34:15.808Z,1.80
2018-03-31T11:36:43.370Z,1.30
2018-03-31T11:39:10.373Z,1.70
2018-03-31T11:41:37.542Z,1.23
2018-03-31T11:44:04.553Z,1.87
2018-03-31T11:46:31.569Z,1.43
2018-03-31T11:48:58.924Z,2.10
2018-03-31T11:51:25.934Z,1.03
2018-03-31T11:53:52.937Z,1.87
2018-03-31T11:56:20.142Z,1.50
2018-03-31T11:58:47.146Z,2.00
2018-03-31T12:01:14.173Z,1.70
2018-03-31T12:03:41.497Z,1.20
2018-03-31T12:06:08.522Z,1.33
2018-03-31T12:08:35.530Z,1.80
2018-03-31T12:11:02.719Z,1.53
2018-03-31T12:13:29.749Z,4.57
2018-03-31T12:15:56.774Z,17.67
2018-03-31T12:18:23.970Z,1.57
2018-03-31T12:20:50.982Z,1.60
2018-03-31T12:23:17.995Z,1.10
2018-03-31T12:25:45.029Z,1.17
2018-03-31T12:28:12.041Z,1.93
2018-03-31T12:30:39.042Z,1.80
2018-03-31T12:33:06.082Z,1.23
2018-03-31T12:35:33.103Z,1.30
2018-03-31T12:38:00.120Z,1.23
2018-03-31T12:40:27.292Z,1.43
2018-03-31T12:42:54.308Z,1.80
2018-03-31T12:45:21.332Z,2.00
2018-03-31T12:47:48.526Z,2.33
2018-03-31T12:50:15.545Z,3.10
2018-03-31T12:52:42.562Z,1.90
2018-03-31T12:55:09.610Z,2.50
2018-03-31T12:57:36.623Z,1.70
2018-03-31T13:00:03.636Z,2.40
2018-03-31T13:02:30.763Z,2.00
2018-03-31T13:04:57.777Z,1.83
2018-03-31T13:07:24.777Z,1.70
2018-03-31T13:09:51.959Z,2.00
2018-03-31T13:12:18.967Z,1.47
2018-03-31T13:14:46.007Z,1.30
2018-03-31T13:17:13.038Z,1.90
2018-03-31T13:19:40.046Z,1.67
2018-03-31T13:22:07.089Z,1.67
2018-03-31T13:24:34.304Z,1.37
2018-03-31T13:27:01.311Z,1.83
2018-03-31T13:29:28.333Z,1.67
2018-03-31T13:31:55.341Z,1.30
2018-03-31T13:34:22.362Z,1.30
2018-03-31T13:36:49.850Z,1.87
2018-03-31T13:39:16.854Z,1.50
2018-03-31T13:41:43.881Z,1.70
2018-03-31T13:44:10.926Z,1.70
2018-03-31T13:46:37.977Z,1.50
2018-03-31T13:49:04.992Z,1.40
2018-03-31T13:51:32.394Z,2.40
2018-03-31T13:53:59.391Z,1.47
2018-03-31T13:56:26.387Z,1.50
2018-03-31T13:58:53.466Z,1.73
2018-03-31T14:01:20.473Z,1.30
2018-03-31T14:03:47.481Z,1.60
2018-03-31T14:06:14.628Z,1.27
2018-03-31T14:08:41.647Z,1.37
2018-03-31T14:11:08.658Z,1.17
2018-03-31T14:13:35.741Z,1.40
2018-03-31T14:16:02.738Z,1.50
2018-03-31T14:18:29.742Z,1.33
2018-03-31T14:20:56.938Z,1.23
2018-03-31T14:23:23.938Z,1.53
2018-03-31T14:25:50.949Z,1.70
2018-03-31T14:28:18.098Z,1.70
2018-03-31T14:30:45.106Z,1.90
2018-03-31T14:33:12.117Z,1.50
2018-03-31T14:35:39.263Z,2.03
2018-03-31T14:38:06.301Z,1.40
2018-03-31T14:40:33.311Z,1.43
2018-03-31T14:43:01.369Z,1.50
2018-03-31T14:45:28.399Z,1.70
2018-03-31T14:47:55.422Z,1.70
2018-03-31T14:50:22.468Z,1.40
2018-03-31T14:52:49.486Z,1.83
2018-03-31T14:55:16.518Z,1.77
2018-03-31T14:57:43.585Z,1.87
2018-03-31T15:00:10.587Z,2.23
2018-03-31T15:02:37.649Z,1.77
2018-03-31T15:05:04.703Z,2.23
2018-03-31T15:07:31.704Z,1.50
2018-03-31T15:09:58.713Z,1.93
2018-03-31T15:12:25.755Z,2.37
2018-03-31T15:14:52.785Z,2.13
2018-03-31T15:17:19.799Z,1.97
2018-03-31T15:19:46.995Z,1.93
2018-03-31T15:22:14.026Z,1.90
2018-03-31T15:24:41.057Z,1.80
2018-03-31T15:27:08.184Z,2.23
2018-03-31T15:29:35.266Z,2.37
2018-03-31T15:32:02.250Z,2.13
2018-03-31T15:34:29.298Z,1.73
2018-03-31T15:36:56.306Z,1.87
2018-03-31T15:39:23.348Z,2.00
2018-03-31T15:41:50.420Z,2.30
2018-03-31T15:44:17.426Z,2.40
2018-03-31T15:46:44.422Z,2.47
2018-03-31T15:49:11.493Z,2.20
2018-03-31T15:51:38.506Z,2.00
2018-03-31T15:54:05.514Z,2.57
2018-03-31T15:56:32.571Z,2.67
2018-03-31T15:58:59.592Z,2.13
2018-03-31T16:01:26.594Z,2.20
2018-03-31T16:03:53.781Z,2.40
2018-03-31T16:06:20.797Z,2.90
2018-03-31T16:08:47.814Z,2.67
2018-03-31T16:11:15.006Z,3.07
2018-03-31T16:13:42.045Z,2.40
2018-03-31T16:16:09.066Z,2.80
2018-03-31T16:18:36.105Z,2.40
2018-03-31T16:21:03.120Z,2.20
2018-03-31T16:23:30.159Z,2.30
2018-03-31T16:25:57.203Z,2.20
2018-03-31T16:28:24.210Z,2.10
2018-03-31T16:30:51.235Z,2.20
2018-03-31T16:33:18.734Z,2.17
2018-03-31T16:35:45.764Z,2.00
2018-03-31T16:38:12.783Z,2.10
2018-03-31T16:40:39.827Z,2.27
2018-03-31T16:43:06.837Z,2.30
2018-03-31T16:45:33.851Z,2.10
2018-03-31T16:48:00.904Z,2.60
2018-03-31T16:50:27.924Z,1.93
2018-03-31T16:52:54.951Z,2.27
2018-03-31T16:55:22.036Z,2.83
2018-03-31T16:57:49.088Z,2.60
2018-03-31T17:00:16.116Z,2.63
2018-03-31T17:02:43.447Z,2.60
2018-03-31T17:05:10.466Z,2.23
2018-03-31T17:07:37.476Z,2.33
2018-03-31T17:10:04.901Z,2.37
2018-03-31T17:12:31.917Z,2.20
2018-03-31T17:14:58.929Z,2.30
2018-03-31T17:17:26.126Z,2.37
2018-03-31T17:19:53.143Z,1.90
2018-03-31T17:22:20.154Z,2.70
2018-03-31T17:24:47.211Z,2.57
2018-03-31T17:27:14.222Z,2.33
2018-03-31T17:29:41.229Z,2.23
2018-03-31T17:32:08.237Z,2.77
2018-03-31T17:34:35.251Z,2.60
2018-03-31T17:37:02.329Z,2.00
2018-03-31T17:39:29.340Z,2.13
2018-03-31T17:41:56.350Z,2.63
2018-03-31T17:44:23.398Z,2.30
2018-03-31T17:46:50.414Z,2.20
2018-03-31T17:49:17.437Z,1.90
2018-03-31T17:51:44.788Z,3.00
2018-03-31T17:54:11.794Z,1.83
2018-03-31T17:56:38.797Z,2.40
2018-03-31T17:59:05.904Z,3.10
2018-03-31T18:01:32.929Z,1.90
2018-03-31T18:03:59.940Z,2.37
2018-03-31T18:06:27.284Z,2.00
2018-03-31T18:08:54.292Z,2.10
2018-03-31T18:11:21.328Z,3.47
2018-03-31T18:13:48.369Z,5.73
2018-03-31T18:16:15.395Z,3.63
2018-03-31T18:18:42.405Z,2.90
2018-03-31T18:21:09.740Z,9.80
2018-03-31T18:23:36.783Z,10.57
2018-03-31T18:26:03.800Z,9.10
2018-03-31T18:28:30.981Z,7.80
2018-03-31T18:30:57.999Z,6.40
2018-03-31T18:33:25.007Z,3.20
2018-03-31T18:35:52.202Z,2.17
2018-03-31T18:38:19.216Z,6.40
2018-03-31T18:40:46.234Z,7.20
2018-03-31T18:43:13.265Z,6.80
2018-03-31T18:45:40.279Z,4.43
2018-03-31T18:48:07.286Z,2.53
2018-03-31T18:50:34.329Z,5.73
2018-03-31T18:53:01.337Z,4.70
2018-03-31T18:55:28.354Z,5.97
2018-03-31T18:57:55.409Z,2.63
2018-03-31T19:00:22.416Z,4.30
2018-03-31T19:02:49.720Z,4.40
2018-03-31T19:05:16.777Z,6.27
2018-03-31T19:07:43.790Z,9.60
2018-03-31T19:10:10.797Z,9.23
2018-03-31T19:12:37.989Z,5.00
2018-03-31T19:15:05.010Z,6.53
2018-03-31T19:17:32.036Z,9.50
2018-03-31T19:19:59.105Z,9.47
2018-03-31T19:22:26.132Z,13.83
2018-03-31T19:24:58.748Z,10.03
2018-03-31T19:27:25.837Z,10.33
2018-03-31T19:29:52.851Z,9.90
2018-03-31T19:32:19.886Z,11.30
2018-03-31T19:34:46.930Z,9.13
2018-03-31T19:37:13.961Z,6.13
2018-03-31T19:39:46.385Z,9.73
2018-03-31T19:42:13.451Z,10.50
2018-03-31T19:44:40.480Z,9.87
2018-03-31T19:47:07.506Z,10.63
2018-03-31T19:49:34.568Z,9.83
2018-03-31T19:52:01.596Z,10.30
2018-03-31T19:54:28.614Z,10.07
2018-03-31T19:56:55.682Z,9.53
2018-03-31T19:59:22.722Z,9.97
2018-03-31T20:01:49.741Z,10.20
2018-03-31T20:04:16.934Z,9.70
2018-03-31T20:06:43.942Z,9.03
2018-03-31T20:09:10.962Z,8.60
2018-03-31T20:11:38.124Z,8.73
2018-03-31T20:14:05.130Z,8.10
2018-03-31T20:16:32.142Z,8.87
2018-03-31T20:18:59.212Z,9.43
2018-03-31T20:21:26.223Z,8.43
2018-03-31T20:23:53.241Z,4.93
2018-03-31T20:26:20.306Z,5.07
2018-03-31T20:28:47.326Z,5.47
2018-03-31T20:31:14.345Z,7.27
2018-03-31T20:33:41.542Z,7.70
2018-03-31T20:36:08.578Z,7.33
2018-03-31T20:38:35.599Z,9.00
2018-03-31T20:41:02.811Z,7.47
2018-03-31T20:43:29.962Z,7.00
2018-03-31T20:45:56.978Z,8.00
2018-03-31T20:48:24.028Z,5.60
2018-03-31T20:50:51.040Z,4.57
2018-03-31T20:53:18.069Z,3.27
2018-03-31T20:55:45.126Z,2.63
2018-03-31T20:58:12.134Z,5.17
2018-03-31T21:00:39.142Z,3.07
2018-03-31T21:03:06.340Z,3.57
2018-03-31T21:05:33.365Z,4.00
2018-03-31T21:08:00.378Z,2.57
2018-03-31T21:10:27.509Z,2.03
2018-03-31T21:12:54.515Z,2.50
2018-03-31T21:15:21.541Z,2.67
2018-03-31T21:17:48.581Z,3.37
2018-03-31T21:20:15.618Z,4.87
2018-03-31T21:22:42.629Z,3.60
2018-03-31T21:25:09.697Z,4.37
2018-03-31T21:27:36.693Z,4.47
2018-03-31T21:30:03.710Z,4.50
2018-03-31T21:32:30.720Z,4.87
2018-03-31T21:34:57.735Z,5.17
2018-03-31T21:37:24.770Z,5.40
2018-03-31T21:39:51.774Z,4.80
2018-03-31T21:42:18.782Z,4.80
2018-03-31T21:44:46.116Z,32.07
2018-03-31T21:47:13.126Z,14.67
2018-03-31T21:49:40.569Z,20.67
2018-03-31T21:52:07.610Z,21.87
2018-03-31T21:54:34.621Z,19.23
2018-03-31T21:57:01.640Z,15.57
2018-03-31T21:59:28.841Z,54.03
2018-03-31T22:01:55.884Z,60.40
2018-03-31T22:04:22.899Z,13.20
2018-03-31T22:06:50.095Z,141.17
2018-03-31T22:09:17.115Z,21.97
2018-03-31T22:11:44.116Z,12.50
2018-03-31T22:14:16.841Z,7.53
2018-03-31T22:16:43.870Z,5.13
2018-03-31T22:19:10.886Z,4.40
2018-03-31T22:21:38.079Z,29.63
2018-03-31T22:24:05.102Z,5.40
2018-03-31T22:26:32.125Z,4.93
2018-03-31T22:28:59.335Z,5.27
2018-03-31T22:31:26.356Z,5.73
2018-03-31T22:33:53.367Z,6.30
2018-03-31T22:36:20.397Z,6.63
2018-03-31T22:38:47.402Z,6.70
2018-03-31T22:41:14.417Z,4.73
2018-03-31T22:43:41.466Z,5.83
2018-03-31T22:46:08.470Z,5.30
2018-03-31T22:48:35.481Z,4.77
2018-03-31T22:51:02.673Z,6.40
2018-03-31T22:53:29.672Z,6.37
2018-03-31T22:55:56.685Z,5.70
2018-03-31T22:58:23.822Z,5.97
2018-03-31T23:00:50.833Z,6.37
2018-03-31T23:03:17.844Z,6.07
2018-03-31T23:05:44.885Z,5.70
2018-03-31T23:08:11.903Z,6.13
2018-03-31T23:10:38.928Z,5.40
2018-03-31T23:13:06.127Z,5.97
2018-03-31T23:15:33.137Z,5.10
2018-03-31T23:18:00.138Z,4.37
2018-03-31T23:20:27.341Z,4.80
2018-03-31T23:22:54.367Z,2.40
2018-03-31T23:25:21.374Z,2.60
2018-03-31T23:27:48.442Z,2.20
2018-03-31T23:30:15.437Z,2.10
2018-03-31T23:32:42.440Z,2.73
2018-03-31T23:35:09.625Z,2.30
2018-03-31T23:37:36.653Z,2.10
2018-03-31T23:40:03.666Z,2.43
2018-03-31T23:42:30.814Z,2.33
2018-03-31T23:44:57.849Z,2.00
2018-03-31T23:47:24.869Z,1.93
2018-03-31T23:49:52.018Z,2.20
2018-03-31T23:52:19.034Z,9.07
2018-03-31T23:54:46.044Z,2.20
2018-03-31T23:57:13.082Z,3.00
2018-03-31T23:59:40.098Z,2.50
